Time;durP1;ratioP1;P1;durP2;ratioP2;P2;SDS_P1;SDS_P2;PMS_P1;PMS_P2;Temp;Humidity;BMP_temperature;BMP_pressure;BME280_temperature;BME280_humidity;BME280_pressure;Samples;Min_cycle;Max_cycle;Signal;HPM_P1;HPM_P2
2022/05/19 00:01:08;;;;;;;7.47;6.97;;;17.40;99.90;;;;;;4989969;28;20422;-60
2022/05/19 00:03:38;;;;;;;6.83;6.43;;;17.30;99.90;;;;;;4988310;28;20824;-61
2022/05/19 00:06:06;;;;;;;7.23;6.80;;;17.30;99.90;;;;;;4989594;28;20447;-60
2022/05/19 00:08:32;;;;;;;8.03;7.43;;;17.20;99.90;;;;;;4989027;28;20508;-61
2022/05/19 00:11:01;;;;;;;8.00;7.40;;;17.30;99.90;;;;;;4990425;28;20857;-60
2022/05/19 00:13:29;;;;;;;7.30;6.90;;;17.30;99.90;;;;;;4977346;28;20188;-61
2022/05/19 00:15:55;;;;;;;8.10;7.50;;;17.20;99.90;;;;;;4981819;28;20852;-61
2022/05/19 00:18:20;;;;;;;7.60;7.20;;;17.10;99.90;;;;;;4980869;28;20450;-61
2022/05/19 00:20:46;;;;;;;7.93;7.23;;;17.10;99.90;;;;;;4981522;28;20188;-61
2022/05/19 00:23:12;;;;;;;8.07;6.80;;;17.10;99.90;;;;;;4989344;28;20646;-61
2022/05/19 00:25:38;;;;;;;7.97;7.47;;;17.10;99.90;;;;;;4986779;28;20441;-58
2022/05/19 00:28:05;;;;;;;7.00;6.60;;;17.10;99.90;;;;;;4979172;28;20774;-61
2022/05/19 00:30:32;;;;;;;7.60;7.10;;;17.10;99.90;;;;;;4986892;28;20202;-61
2022/05/19 00:32:57;;;;;;;7.60;7.20;;;17.10;99.90;;;;;;4989465;28;20426;-60
2022/05/19 00:35:23;;;;;;;7.37;6.93;;;17.10;99.90;;;;;;4984865;28;20453;-61
2022/05/19 00:37:48;;;;;;;7.10;6.70;;;17.00;99.90;;;;;;4988975;28;20269;-60
2022/05/19 00:40:16;;;;;;;8.00;7.40;;;17.10;99.90;;;;;;4987977;28;20531;-60
2022/05/19 00:42:45;;;;;;;7.57;7.07;;;17.10;99.90;;;;;;4989284;28;20223;-60
2022/05/19 00:45:13;;;;;;;7.10;6.60;;;17.00;99.90;;;;;;4989348;28;20820;-60
2022/05/19 00:48:06;;;;;;;7.67;7.17;;;17.10;99.90;;;;;;4989780;28;20814;-59
2022/05/19 00:50:39;;;;;;;7.10;6.70;;;17.10;99.90;;;;;;4986850;28;21044;-60
2022/05/19 00:53:12;;;;;;;7.30;6.90;;;17.00;99.90;;;;;;4989899;28;20566;-60
2022/05/19 00:55:44;;;;;;;6.80;6.50;;;17.00;99.90;;;;;;4988909;28;20557;-60
2022/05/19 00:58:35;;;;;;;7.30;6.80;;;17.00;99.90;;;;;;4989670;28;20425;-59
2022/05/19 01:01:02;;;;;;;7.33;6.93;;;17.00;99.90;;;;;;4983613;28;20477;-59
2022/05/19 01:03:32;;;;;;;7.90;7.10;;;16.90;99.90;;;;;;4989088;28;20492;-59
2022/05/19 01:06:06;;;;;;;7.53;7.03;;;16.90;99.90;;;;;;4989124;28;20450;-60
2022/05/19 01:08:40;;;;;;;7.80;7.20;;;17.00;99.90;;;;;;4974136;28;20418;-60
2022/05/19 01:11:07;;;;;;;7.50;6.73;;;16.90;99.90;;;;;;4983971;28;20504;-61
2022/05/19 01:13:34;;;;;;;7.70;7.30;;;16.90;99.90;;;;;;4991227;28;20446;-60
2022/05/19 01:16:02;;;;;;;7.80;7.20;;;16.90;99.90;;;;;;4992839;28;20477;-60
2022/05/19 01:18:29;;;;;;;7.07;6.67;;;16.90;99.90;;;;;;4992779;28;20440;-61
2022/05/19 01:20:55;;;;;;;7.00;6.60;;;16.90;99.90;;;;;;4991964;28;20454;-61
2022/05/19 01:23:31;;;;;;;6.80;6.33;;;16.80;99.90;;;;;;4991338;28;20496;-57
2022/05/19 01:26:25;;;;;;;6.80;6.40;;;16.80;99.90;;;;;;4992504;28;20213;-60
2022/05/19 01:28:51;;;;;;;7.20;6.70;;;16.80;99.90;;;;;;4974212;28;20418;-60
2022/05/19 01:31:29;;;;;;;7.50;7.10;;;16.80;99.90;;;;;;4983600;28;20476;-59
2022/05/19 01:33:55;;;;;;;7.50;6.90;;;16.80;99.90;;;;;;4992216;28;20187;-59
2022/05/19 01:36:21;;;;;;;7.90;7.37;;;16.70;99.90;;;;;;4983551;28;20977;-60
2022/05/19 01:38:54;;;;;;;7.87;7.37;;;16.70;99.90;;;;;;4984007;28;20445;-60
2022/05/19 01:41:29;;;;;;;7.30;6.90;;;16.70;99.90;;;;;;4992718;28;20442;-59
2022/05/19 01:44:05;;;;;;;7.40;6.87;;;16.70;99.90;;;;;;4991403;28;20440;-60
2022/05/19 01:46:36;;;;;;;7.60;7.10;;;16.70;1.00;;;;;;4991684;28;20435;-60
2022/05/19 01:49:33;;;;;;;7.77;7.20;;;16.60;99.90;;;;;;4991137;28;20459;-60
2022/05/19 01:52:12;;;;;;;7.00;6.60;;;16.60;99.90;;;;;;4990619;28;21238;-60
2022/05/19 01:54:47;;;;;;;7.73;7.17;;;16.50;1.00;;;;;;4979776;28;20437;-60
2022/05/19 01:57:31;;;;;;;7.17;6.77;;;16.60;1.00;;;;;;4979617;28;20484;-60
2022/05/19 02:00:20;;;;;;;7.17;6.70;;;16.50;1.00;;;;;;4991365;28;20436;-60
2022/05/19 02:03:00;;;;;;;7.17;6.70;;;16.50;1.00;;;;;;4991679;28;20425;-58
2022/05/19 02:05:50;;;;;;;7.03;6.53;;;16.50;1.00;;;;;;4991075;28;20442;-59
2022/05/19 02:08:37;;;;;;;7.07;6.67;;;16.40;1.00;;;;;;4973009;28;20423;-59
2022/05/19 02:11:09;;;;;;;7.70;7.20;;;16.40;1.00;;;;;;4974208;28;20499;-60
2022/05/19 02:13:35;;;;;;;6.93;6.33;;;16.40;1.00;;;;;;4989646;28;20470;-60
2022/05/19 02:16:04;;;;;;;7.27;6.83;;;16.40;1.00;;;;;;4992917;28;21102;-60
2022/05/19 02:18:30;;;;;;;7.40;6.90;;;16.30;1.00;;;;;;4991172;28;20440;-60
2022/05/19 02:20:58;;;;;;;7.57;7.07;;;16.30;1.00;;;;;;4991358;28;20456;-60
2022/05/19 02:23:25;;;;;;;7.30;6.70;;;16.30;1.00;;;;;;4992061;28;20242;-59
2022/05/19 02:25:55;;;;;;;7.53;6.93;;;16.30;1.00;;;;;;4992721;28;21387;-59
2022/05/19 02:28:57;;;;;;;7.40;7.00;;;16.20;1.00;;;;;;4991004;28;20451;-60
2022/05/19 02:31:22;;;;;;;6.90;6.50;;;16.20;1.00;;;;;;4989937;28;20479;-58
2022/05/19 02:33:48;;;;;;;7.63;7.23;;;16.10;1.00;;;;;;4991485;28;20436;-60
2022/05/19 02:36:14;;;;;;;7.60;7.10;;;16.00;1.00;;;;;;4991454;28;20244;-60
2022/05/19 02:38:40;;;;;;;8.07;7.43;;;16.00;1.00;;;;;;4991572;28;21073;-60
2022/05/19 02:41:06;;;;;;;8.50;7.80;;;16.00;1.00;;;;;;4992483;28;20197;-60
2022/05/19 02:43:31;;;;;;;7.70;7.23;;;15.90;1.00;;;;;;4991479;28;20230;-60
2022/05/19 02:45:57;;;;;;;7.77;7.27;;;15.90;1.00;;;;;;4990595;28;20879;-60
2022/05/19 02:48:23;;;;;;;8.17;7.70;;;15.90;1.00;;;;;;4990491;28;20219;-60
2022/05/19 02:50:50;;;;;;;8.43;7.90;;;15.90;1.00;;;;;;4986527;28;20240;-60
2022/05/19 02:53:17;;;;;;;8.30;7.80;;;15.90;1.00;;;;;;4988308;28;20520;-60
2022/05/19 02:55:43;;;;;;;8.30;7.80;;;15.80;1.00;;;;;;4988309;28;20468;-59
2022/05/19 02:58:11;;;;;;;8.80;8.20;;;15.80;1.00;;;;;;4990198;28;20478;-59
2022/05/19 03:00:38;;;;;;;8.10;7.60;;;15.70;1.00;;;;;;4978959;28;20480;-54
2022/05/19 03:03:03;;;;;;;7.40;7.00;;;15.70;1.00;;;;;;4990907;28;20512;-60
2022/05/19 03:05:31;;;;;;;7.67;7.20;;;15.80;1.00;;;;;;4988716;28;20519;-60
2022/05/19 03:07:57;;;;;;;8.37;7.73;;;15.70;1.00;;;;;;4991358;28;20194;-60
2022/05/19 03:10:23;;;;;;;7.87;7.47;;;15.70;26.20;;;;;;4990468;28;20486;-59
2022/05/19 03:12:49;;;;;;;9.00;8.40;;;15.70;65.20;;;;;;4990687;28;20201;-60
2022/05/19 03:15:15;;;;;;;7.97;7.47;;;15.60;99.90;;;;;;4989352;28;20455;-60
2022/05/19 03:17:41;;;;;;;7.70;7.20;;;15.50;99.90;;;;;;4988678;28;20443;-60
2022/05/19 03:20:08;;;;;;;8.20;7.70;;;15.50;99.90;;;;;;4989824;28;20433;-58
2022/05/19 03:22:34;;;;;;;8.50;7.80;;;15.40;99.90;;;;;;4989497;28;20222;-60
2022/05/19 03:25:00;;;;;;;8.30;7.80;;;15.30;99.90;;;;;;4990875;28;20868;-60
2022/05/19 03:27:25;;;;;;;8.03;7.33;;;15.30;99.90;;;;;;4989468;28;20200;-60
2022/05/19 03:29:53;;;;;;;8.27;7.77;;;15.20;99.90;;;;;;4989083;28;20214;-60
2022/05/19 03:32:19;;;;;;;8.00;7.43;;;15.20;99.90;;;;;;4980968;28;20180;-59
2022/05/19 03:34:44;;;;;;;7.50;7.00;;;15.10;99.90;;;;;;4989113;28;20451;-58
2022/05/19 03:37:11;;;;;;;7.97;7.23;;;15.10;99.90;;;;;;4985907;28;20435;-59
2022/05/19 03:39:37;;;;;;;8.23;7.33;;;15.10;99.90;;;;;;4991147;28;20180;-56
2022/05/19 03:42:05;;;;;;;8.10;7.50;;;15.00;99.90;;;;;;4989352;28;20814;-55
2022/05/19 03:44:31;;;;;;;8.47;7.87;;;15.00;99.90;;;;;;4989120;28;21051;-58
2022/05/19 03:46:56;;;;;;;7.83;7.23;;;15.00;99.90;;;;;;4981807;28;20416;-59
2022/05/19 03:49:22;;;;;;;8.03;7.40;;;15.00;99.90;;;;;;4985703;28;20184;-60
2022/05/19 03:51:48;;;;;;;7.90;7.30;;;15.00;99.90;;;;;;4987542;28;20200;-60
2022/05/19 03:54:13;;;;;;;7.90;7.30;;;15.10;99.90;;;;;;4988726;28;20506;-59
2022/05/19 03:56:39;;;;;;;7.93;7.20;;;15.10;99.90;;;;;;4988772;28;20250;-59
2022/05/19 03:59:05;;;;;;;7.47;6.97;;;15.10;99.90;;;;;;4989857;28;20196;-60
2022/05/19 04:01:31;;;;;;;7.90;7.40;;;15.20;99.90;;;;;;4990071;28;20256;-60
2022/05/19 04:03:57;;;;;;;8.03;7.53;;;15.20;99.90;;;;;;4989670;28;20596;-60
2022/05/19 04:06:23;;;;;;;8.37;7.70;;;15.30;99.90;;;;;;4990358;28;20598;-60
2022/05/19 04:08:48;;;;;;;8.23;7.57;;;15.30;99.90;;;;;;4989045;28;21094;-60
2022/05/19 04:11:14;;;;;;;7.70;7.20;;;15.30;99.90;;;;;;4990375;28;20209;-60
2022/05/19 04:13:40;;;;;;;8.27;7.30;;;15.30;75.90;;;;;;4987600;28;20574;-60
2022/05/19 04:16:06;;;;;;;9.10;8.50;;;15.40;75.50;;;;;;4986025;28;20761;-60
2022/05/19 04:18:31;;;;;;;7.90;7.40;;;15.40;41.00;;;;;;4985370;28;20519;-59
2022/05/19 04:20:57;;;;;;;8.40;7.90;;;15.50;1.00;;;;;;4979452;28;20245;-60
2022/05/19 04:23:23;;;;;;;9.10;8.50;;;15.50;1.00;;;;;;4980780;28;20189;-60
2022/05/19 04:25:49;;;;;;;8.67;8.07;;;15.60;1.00;;;;;;4981631;28;20200;-59
2022/05/19 04:28:15;;;;;;;9.07;8.40;;;15.60;1.00;;;;;;4980793;28;20197;-60
2022/05/19 04:30:43;;;;;;;8.03;7.37;;;15.60;1.00;;;;;;4981629;28;20827;-59
2022/05/19 04:33:10;;;;;;;8.10;7.40;;;15.60;1.00;;;;;;4980999;28;20180;-61
2022/05/19 04:35:35;;;;;;;7.97;7.40;;;15.70;1.00;;;;;;4981336;28;20424;-60
2022/05/19 04:38:13;;;;;;;7.77;7.37;;;15.70;1.00;;;;;;4981030;28;20438;-58
2022/05/19 04:40:41;;;;;;;7.90;7.30;;;15.70;1.00;;;;;;4981451;28;20195;-60
2022/05/19 04:43:08;;;;;;;7.93;7.33;;;15.70;1.00;;;;;;4976963;28;20444;-60
2022/05/19 04:45:34;;;;;;;7.40;6.90;;;15.80;1.00;;;;;;4980673;28;20946;-59
2022/05/19 04:47:59;;;;;;;8.43;7.63;;;15.70;1.00;;;;;;4980236;28;20439;-60
2022/05/19 04:50:25;;;;;;;7.93;7.43;;;15.80;1.00;;;;;;4981517;28;20214;-59
2022/05/19 04:52:51;;;;;;;8.77;8.10;;;15.90;1.00;;;;;;4987505;28;20186;-60
2022/05/19 04:55:16;;;;;;;8.10;7.60;;;15.90;1.00;;;;;;4987987;28;20192;-59
2022/05/19 04:57:43;;;;;;;8.47;7.97;;;15.90;1.00;;;;;;4982484;28;20640;-60
2022/05/19 05:00:12;;;;;;;7.60;7.00;;;15.90;1.00;;;;;;4972337;28;20193;-60
2022/05/19 05:02:38;;;;;;;7.30;6.90;;;15.90;1.00;;;;;;4983774;28;20446;-59
2022/05/19 05:05:05;;;;;;;7.63;7.20;;;15.90;1.00;;;;;;4985313;28;20453;-59
2022/05/19 05:07:30;;;;;;;7.97;7.37;;;16.00;1.00;;;;;;4975711;28;20182;-59
2022/05/19 05:09:56;;;;;;;8.40;7.80;;;16.00;1.00;;;;;;4987408;28;20516;-59
2022/05/19 05:12:21;;;;;;;7.87;7.17;;;16.00;1.00;;;;;;4988843;28;20178;-59
2022/05/19 05:14:47;;;;;;;7.60;7.10;;;16.00;1.00;;;;;;4975997;28;20170;-60
2022/05/19 05:17:14;;;;;;;8.00;7.30;;;16.10;1.00;;;;;;4988334;28;20199;-60
2022/05/19 05:19:40;;;;;;;8.17;7.67;;;16.10;1.00;;;;;;4989607;28;20205;-60
2022/05/19 05:22:06;;;;;;;7.10;6.70;;;16.20;1.00;;;;;;4989012;28;20435;-57
2022/05/19 05:24:32;;;;;;;7.43;6.93;;;16.20;1.00;;;;;;4989629;28;20415;-60
2022/05/19 05:26:58;;;;;;;8.17;7.67;;;16.20;1.00;;;;;;4988332;28;20205;-58
2022/05/19 05:29:24;;;;;;;8.30;7.70;;;16.20;1.00;;;;;;4985827;28;20446;-59
2022/05/19 05:31:49;;;;;;;7.83;7.20;;;16.30;1.00;;;;;;4979351;28;20217;-59
2022/05/19 05:34:15;;;;;;;7.30;6.67;;;16.30;1.00;;;;;;4986743;28;20191;-59
2022/05/19 05:36:41;;;;;;;8.27;7.20;;;16.40;1.00;;;;;;4983926;28;20196;-59
2022/05/19 05:39:06;;;;;;;7.97;7.27;;;16.40;1.00;;;;;;4980014;28;20448;-60
2022/05/19 05:41:32;;;;;;;7.43;7.00;;;16.50;1.00;;;;;;4979538;28;20644;-60
2022/05/19 05:43:57;;;;;;;7.87;7.17;;;16.50;1.00;;;;;;4977077;28;20202;-57
2022/05/19 05:46:23;;;;;;;7.53;7.03;;;16.60;1.00;;;;;;4979926;28;20245;-60
2022/05/19 05:48:48;;;;;;;7.57;7.07;;;16.60;1.00;;;;;;4977440;28;20201;-60
2022/05/19 05:51:16;;;;;;;7.00;6.50;;;16.70;1.00;;;;;;4978255;28;20224;-59
2022/05/19 05:53:42;;;;;;;7.63;6.93;;;16.70;1.00;;;;;;4979793;28;20291;-60
2022/05/19 05:56:11;;;;;;;7.20;6.70;;;16.80;1.00;;;;;;4981338;28;21050;-59
2022/05/19 05:58:38;;;;;;;7.63;7.13;;;16.80;1.00;;;;;;4982881;28;20793;-60
2022/05/19 06:01:06;;;;;;;6.80;6.40;;;16.90;1.00;;;;;;4983397;28;20741;-59
2022/05/19 06:03:32;;;;;;;7.53;7.00;;;16.90;1.00;;;;;;4986231;28;20982;-60
2022/05/19 06:05:59;;;;;;;7.03;6.53;;;17.00;1.00;;;;;;4990483;28;20454;-59
2022/05/19 06:08:25;;;;;;;7.70;7.00;;;17.10;1.00;;;;;;4992822;28;20423;-60
2022/05/19 06:10:50;;;;;;;7.60;7.20;;;17.10;1.00;;;;;;4985753;28;20813;-60
2022/05/19 06:13:16;;;;;;;6.40;6.00;;;17.20;1.00;;;;;;4973253;28;20442;-60
2022/05/19 06:15:42;;;;;;;7.00;6.50;;;17.30;1.00;;;;;;4990952;28;20180;-60
2022/05/19 06:18:08;;;;;;;7.63;7.03;;;17.30;1.00;;;;;;4991015;28;20198;-59
2022/05/19 06:20:34;;;;;;;7.40;7.00;;;17.40;1.00;;;;;;4992520;28;20187;-56
2022/05/19 06:23:00;;;;;;;8.07;7.50;;;17.50;99.90;;;;;;4984324;28;20208;-60
2022/05/19 06:25:26;;;;;;;7.37;6.90;;;17.60;99.90;;;;;;4976075;28;20850;-60
2022/05/19 06:27:52;;;;;;;7.63;7.03;;;17.60;99.90;;;;;;4992336;28;20275;-58
2022/05/19 06:30:20;;;;;;;7.63;7.00;;;17.70;99.90;;;;;;4988190;28;20471;-60
2022/05/19 06:32:47;;;;;;;7.00;6.43;;;17.80;99.90;;;;;;4992317;28;20426;-60
2022/05/19 06:35:16;;;;;;;7.20;6.70;;;17.90;99.90;;;;;;4991506;28;20492;-60
2022/05/19 06:37:42;;;;;;;6.47;5.97;;;18.00;99.90;;;;;;4990544;28;20439;-60
2022/05/19 06:40:09;;;;;;;7.53;7.03;;;18.10;99.90;;;;;;4992173;28;20473;-60
2022/05/19 06:42:35;;;;;;;6.73;6.33;;;18.20;99.90;;;;;;4991296;28;20421;-60
2022/05/19 06:45:01;;;;;;;7.20;6.60;;;18.20;99.90;;;;;;4992148;28;20477;-60
2022/05/19 06:47:28;;;;;;;6.83;6.40;;;18.30;99.90;;;;;;4989355;28;20994;-60
2022/05/19 06:49:55;;;;;;;6.40;5.90;;;18.40;99.90;;;;;;4988757;28;20204;-60
2022/05/19 06:52:31;;;;;;;7.40;7.00;;;18.50;99.90;;;;;;4986541;28;20921;-60
2022/05/19 06:54:59;;;;;;;7.00;6.50;;;18.60;99.90;;;;;;4972165;28;20420;-59
2022/05/19 06:57:26;;;;;;;6.67;6.23;;;18.70;99.90;;;;;;4987514;28;20467;-59
2022/05/19 06:59:52;;;;;;;6.90;6.40;;;18.80;99.90;;;;;;4978779;28;20436;-57
2022/05/19 07:02:19;;;;;;;6.90;6.40;;;18.90;99.90;;;;;;4982145;28;20958;-59
2022/05/19 07:04:45;;;;;;;6.20;5.87;;;19.10;99.90;;;;;;4972546;28;20428;-59
2022/05/19 07:07:12;;;;;;;6.30;5.90;;;19.10;99.90;;;;;;4972240;28;20427;-59
2022/05/19 07:09:39;;;;;;;6.10;5.60;;;19.20;99.90;;;;;;4974031;28;20416;-59
2022/05/19 07:12:06;;;;;;;7.03;6.43;;;19.30;99.90;;;;;;4989386;28;20419;-56
2022/05/19 07:14:32;;;;;;;6.50;6.10;;;19.40;99.90;;;;;;4989305;28;20467;-59
2022/05/19 07:16:57;;;;;;;6.57;6.07;;;19.50;99.90;;;;;;4991360;28;20663;-60
2022/05/19 07:22:13;;;;;;;6.50;6.10;;;19.70;99.90;;;;;;4991139;28;20459;-59
2022/05/19 07:24:39;;;;;;;7.03;6.53;;;19.80;99.90;;;;;;4987113;28;20470;-59
2022/05/19 07:27:05;;;;;;;6.87;6.47;;;19.90;99.90;;;;;;4990703;28;20479;-58
2022/05/19 07:29:30;;;;;;;7.43;6.93;;;20.10;99.90;;;;;;4972403;28;20177;-59
2022/05/19 07:32:01;;;;;;;9.90;6.73;;;20.20;99.90;;;;;;4978372;28;20185;-59
2022/05/19 07:34:28;;;;;;;6.30;5.90;;;20.30;99.90;;;;;;4990653;28;20187;-60
2022/05/19 07:36:54;;;;;;;6.10;5.80;;;20.40;99.90;;;;;;4989096;28;20443;-59
2022/05/19 07:39:20;;;;;;;6.50;6.20;;;20.60;99.90;;;;;;4990155;28;21072;-60
2022/05/19 07:41:47;;;;;;;6.90;6.50;;;20.80;99.90;;;;;;4987499;28;20490;-57
2022/05/19 07:44:13;;;;;;;6.87;6.37;;;20.80;99.90;;;;;;4991143;28;20422;-58
2022/05/19 07:46:39;;;;;;;7.30;6.83;;;20.90;99.90;;;;;;4989063;28;20502;-60
2022/05/19 07:49:05;;;;;;;6.57;6.17;;;21.10;99.90;;;;;;4987300;28;20819;-60
2022/05/19 07:51:36;;;;;;;5.80;5.50;;;21.20;99.90;;;;;;4989438;28;20463;-60
2022/05/19 07:54:04;;;;;;;5.90;5.60;;;21.30;99.90;;;;;;4986477;28;20807;-60
2022/05/19 07:56:30;;;;;;;6.67;5.70;;;21.40;99.90;;;;;;4989844;28;20498;-60
2022/05/19 07:58:55;;;;;;;6.20;5.70;;;21.60;99.90;;;;;;4989850;28;20428;-58
2022/05/19 08:01:21;;;;;;;6.73;6.23;;;21.60;99.90;;;;;;4989195;28;20305;-59
2022/05/19 08:03:47;;;;;;;5.97;5.63;;;21.80;99.90;;;;;;4989970;28;20201;-60
2022/05/19 08:06:12;;;;;;;5.67;5.30;;;21.90;99.90;;;;;;4988228;28;20192;-60
2022/05/19 08:08:39;;;;;;;5.83;5.50;;;22.00;99.90;;;;;;4988769;28;20354;-59
2022/05/19 08:11:05;;;;;;;5.60;5.30;;;22.10;99.90;;;;;;4976959;28;20280;-60
2022/05/19 08:16:16;;;;;;;5.43;5.03;;;22.40;99.90;;;;;;4972976;28;20982;-60
2022/05/19 08:18:41;;;;;;;5.63;5.23;;;22.50;99.90;;;;;;4980001;28;20569;-60
2022/05/19 08:21:11;;;;;;;6.30;5.80;;;22.60;99.90;;;;;;4988654;28;20340;-60
2022/05/19 08:23:39;;;;;;;6.40;5.80;;;22.80;99.90;;;;;;4988888;28;20719;-59
2022/05/19 08:26:08;;;;;;;6.43;6.13;;;22.90;99.90;;;;;;4975536;28;20427;-58
2022/05/19 08:28:34;;;;;;;5.23;4.83;;;22.90;99.90;;;;;;4983929;28;20438;-59
2022/05/19 08:31:22;;;;;;;5.87;5.57;;;22.90;99.90;;;;;;4984622;28;20499;-60
2022/05/19 08:33:49;;;;;;;5.80;5.57;;;22.90;99.90;;;;;;4989293;28;20433;-59
2022/05/19 08:36:15;;;;;;;6.20;5.57;;;23.10;99.90;;;;;;4985796;28;20425;-60
2022/05/19 08:38:42;;;;;;;7.80;5.17;;;23.30;99.90;;;;;;4983073;28;20918;-60
2022/05/19 08:41:08;;;;;;;5.80;5.50;;;23.50;99.90;;;;;;4981984;28;21235;-60
2022/05/19 08:43:48;;;;;;;5.50;5.20;;;23.70;99.90;;;;;;4986117;28;20428;-61
2022/05/19 08:46:24;;;;;;;5.83;5.43;;;23.80;99.90;;;;;;4976059;28;20176;-59
2022/05/19 08:48:54;;;;;;;5.97;5.47;;;23.80;99.90;;;;;;4983134;28;20448;-60
2022/05/19 08:51:25;;;;;;;6.40;6.00;;;23.80;99.90;;;;;;4970968;28;20464;-60
2022/05/19 08:53:54;;;;;;;5.87;5.47;;;23.90;99.90;;;;;;4989103;28;20813;-59
2022/05/19 08:56:35;;;;;;;6.03;5.50;;;24.00;99.90;;;;;;4989339;28;20467;-60
2022/05/19 08:59:22;;;;;;;6.23;5.90;;;24.20;99.90;;;;;;4986252;28;20470;-59
2022/05/19 09:01:53;;;;;;;6.20;5.73;;;24.40;99.90;;;;;;4988919;28;20396;-60
2022/05/19 09:04:48;;;;;;;6.30;5.67;;;24.60;99.90;;;;;;4989550;28;21315;-59
2022/05/19 09:10:37;;;;;;;6.50;6.20;;;25.10;99.90;;;;;;4988930;28;20503;-59
2022/05/19 09:13:39;;;;;;;6.20;5.80;;;25.80;99.90;;;;;;4987284;28;20433;-60
2022/05/19 09:16:13;;;;;;;6.23;5.80;;;26.00;99.90;;;;;;4969718;28;20419;-60
2022/05/19 09:18:43;;;;;;;6.33;5.77;;;26.30;99.90;;;;;;4982620;28;21380;-60
2022/05/19 09:21:09;;;;;;;5.77;5.27;;;26.30;99.90;;;;;;4988198;28;20435;-59
2022/05/19 09:23:35;;;;;;;5.70;5.20;;;26.30;99.90;;;;;;4988980;28;20458;-59
2022/05/19 09:26:16;;;;;;;5.70;5.40;;;26.70;99.90;;;;;;4989175;28;20907;-60
2022/05/19 09:28:44;;;;;;;5.83;5.53;;;26.90;99.90;;;;;;4988825;28;20406;-60
2022/05/19 09:31:12;;;;;;;6.10;5.70;;;26.90;99.90;;;;;;4988022;28;20523;-60
2022/05/19 09:33:43;;;;;;;5.43;5.13;;;27.70;99.90;;;;;;4989304;28;20416;-59
2022/05/19 09:36:12;;;;;;;5.60;5.23;;;28.10;99.90;;;;;;4983715;28;20411;-59
2022/05/19 09:38:46;;;;;;;5.90;5.50;;;28.10;99.90;;;;;;4991939;28;20419;-59
2022/05/19 09:41:23;;;;;;;9.00;5.63;;;28.40;99.90;;;;;;4976309;28;20446;-59
2022/05/19 09:43:53;;;;;;;6.17;5.77;;;28.80;99.90;;;;;;4976095;28;20416;-59
2022/05/19 09:46:19;;;;;;;5.83;5.50;;;28.70;99.90;;;;;;4992758;28;20570;-59
2022/05/19 09:49:03;;;;;;;5.90;5.50;;;28.80;99.90;;;;;;4990448;28;20846;-59
2022/05/19 09:51:41;;;;;;;5.70;5.30;;;29.30;99.90;;;;;;4978721;28;20460;-60
2022/05/19 09:54:12;;;;;;;5.53;5.23;;;29.50;99.90;;;;;;4986945;28;20599;-60
2022/05/19 09:56:45;;;;;;;6.60;6.27;;;29.30;99.90;;;;;;4972909;28;20468;-61
2022/05/19 09:59:17;;;;;;;6.10;5.70;;;29.10;99.90;;;;;;4975778;28;21016;-60
2022/05/19 10:01:47;;;;;;;5.77;5.47;;;29.40;99.90;;;;;;4992125;28;20425;-60
2022/05/19 10:04:18;;;;;;;8.53;4.40;;;29.60;99.90;;;;;;4990681;28;20444;-59
2022/05/19 10:06:56;;;;;;;5.50;5.17;;;29.70;99.90;;;;;;4991645;28;20447;-60
2022/05/19 10:09:33;;;;;;;5.23;4.83;;;29.80;99.90;;;;;;4990743;28;20481;-58
2022/05/19 10:12:11;;;;;;;5.00;4.70;;;29.80;99.90;;;;;;4991684;28;20470;-60
2022/05/19 10:14:37;;;;;;;6.33;5.03;;;30.20;99.90;;;;;;4984614;28;20431;-60
2022/05/19 10:17:42;;;;;;;5.17;4.97;;;30.90;99.90;;;;;;4973892;28;20511;-60
2022/05/19 10:20:21;;;;;;;5.37;4.90;;;31.70;99.90;;;;;;4980305;28;20794;-60
2022/05/19 10:23:31;;;;;;;4.70;4.50;;;32.10;99.90;;;;;;4991463;28;20516;-60
2022/05/19 10:26:26;;;;;;;4.93;4.63;;;31.30;99.90;;;;;;4983533;28;20494;-61
2022/05/19 10:32:12;;;;;;;5.07;4.80;;;32.50;99.90;;;;;;4986678;28;20479;-61
2022/05/19 10:34:48;;;;;;;5.20;4.73;;;32.80;99.90;;;;;;4991358;28;20424;-61
2022/05/19 10:37:37;;;;;;;5.50;5.20;;;32.70;99.90;;;;;;4990617;28;20450;-62
2022/05/19 10:40:29;;;;;;;5.23;5.03;;;32.80;99.90;;;;;;4986171;28;20910;-59
2022/05/19 10:43:28;;;;;;;5.00;4.70;;;32.00;99.90;;;;;;4989615;28;20966;-60
2022/05/19 10:45:58;;;;;;;6.07;5.53;;;32.70;99.90;;;;;;4991636;28;20450;-60
2022/05/19 10:48:45;;;;;;;5.67;5.27;;;33.40;99.90;;;;;;4986800;28;20431;-61
2022/05/19 10:51:15;;;;;;;5.70;5.30;;;33.10;99.90;;;;;;4987990;28;20524;-60
2022/05/19 10:53:46;;;;;;;5.23;4.93;;;33.20;99.90;;;;;;4991302;28;20420;-59
2022/05/19 10:56:17;;;;;;;4.77;4.47;;;32.90;99.90;;;;;;4991443;28;20479;-61
2022/05/19 10:58:49;;;;;;;4.03;3.83;;;33.40;99.90;;;;;;4991286;28;20404;-61
2022/05/19 11:01:36;;;;;;;4.93;4.63;;;33.00;99.90;;;;;;4990511;28;20467;-60
2022/05/19 11:04:30;;;;;;;4.67;4.40;;;32.40;99.90;;;;;;4991072;28;20773;-60
2022/05/19 11:07:29;;;;;;;5.07;4.77;;;32.50;99.90;;;;;;4990929;28;20438;-60
2022/05/19 11:10:06;;;;;;;5.07;4.77;;;33.00;99.90;;;;;;4986707;28;20446;-60
2022/05/19 11:12:50;;;;;;;4.87;4.57;;;32.50;99.90;;;;;;4990879;28;20478;-60
2022/05/19 11:15:21;;;;;;;4.90;4.50;;;32.90;99.90;;;;;;4991090;28;20574;-61
2022/05/19 11:18:07;;;;;;;4.80;4.40;;;31.90;99.90;;;;;;4990196;28;20392;-60
2022/05/19 11:20:56;;;;;;;5.40;5.00;;;31.80;99.90;;;;;;4990778;28;20522;-60
2022/05/19 11:23:37;;;;;;;4.93;4.73;;;31.90;99.90;;;;;;4989833;28;20434;-59
2022/05/19 11:26:24;;;;;;;5.00;4.73;;;32.00;99.90;;;;;;4990193;28;20446;-61
2022/05/19 11:29:10;;;;;;;5.13;4.73;;;32.60;99.90;;;;;;4986461;28;20467;-61
2022/05/19 11:31:42;;;;;;;5.17;4.70;;;32.50;99.90;;;;;;4990417;28;20463;-59
2022/05/19 11:34:46;;;;;;;4.80;4.50;;;32.20;99.90;;;;;;4987618;28;20510;-60
2022/05/19 11:37:35;;;;;;;4.80;4.50;;;32.00;99.90;;;;;;4981432;28;20439;-61
2022/05/19 11:40:21;;;;;;;4.60;4.37;;;31.90;99.90;;;;;;4979038;28;20430;-61
2022/05/19 11:43:01;;;;;;;4.93;4.53;;;32.70;99.90;;;;;;4989201;28;20544;-60
2022/05/19 11:45:38;;;;;;;9.70;4.87;;;33.00;99.90;;;;;;4977138;28;21399;-60
2022/05/19 11:56:57;;;;;;;4.63;4.43;;;34.20;99.90;;;;;;4989596;28;20980;-60
2022/05/19 11:59:25;;;;;;;4.80;4.60;;;34.60;99.90;;;;;;4989021;28;20419;-60
2022/05/19 12:01:52;;;;;;;3.80;3.60;;;34.00;99.90;;;;;;4988957;28;20441;-60
2022/05/19 12:04:28;;;;;;;4.87;4.57;;;33.80;99.90;;;;;;4988712;28;20435;-62
2022/05/19 12:07:09;;;;;;;4.80;4.60;;;34.40;99.90;;;;;;4989519;28;20498;-60
2022/05/19 12:09:44;;;;;;;5.10;4.80;;;34.90;99.90;;;;;;4990272;28;20938;-59
2022/05/19 12:12:32;;;;;;;4.40;4.20;;;35.30;99.90;;;;;;4986208;28;20463;-61
2022/05/19 12:15:19;;;;;;;4.97;4.10;;;35.10;99.90;;;;;;4981375;28;20434;-61
2022/05/19 12:17:58;;;;;;;4.60;4.40;;;35.00;99.90;;;;;;4985750;28;20422;-61
2022/05/19 12:20:34;;;;;;;4.40;4.10;;;34.30;99.90;;;;;;4970399;28;20416;-59
2022/05/19 12:23:15;;;;;;;4.90;4.60;;;34.90;99.90;;;;;;4983723;28;20779;-61
2022/05/19 12:25:48;;;;;;;4.87;4.47;;;35.60;99.90;;;;;;4983025;28;20431;-60
2022/05/19 12:28:20;;;;;;;4.83;4.47;;;35.60;99.90;;;;;;4972651;28;20954;-61
2022/05/19 12:33:52;;;;;;;4.40;4.20;;;34.50;99.90;;;;;;4983698;28;21749;-60
2022/05/19 12:36:26;;;;;;;4.83;4.53;;;33.70;99.90;;;;;;4979057;28;20416;-61
2022/05/19 12:38:52;;;;;;;4.53;4.20;;;34.30;99.90;;;;;;4986557;28;20411;-61
2022/05/19 12:41:24;;;;;;;5.27;5.00;;;34.40;99.90;;;;;;4982764;28;20424;-61
2022/05/19 12:43:51;;;;;;;4.70;4.50;;;34.70;99.90;;;;;;4983485;28;20415;-60
2022/05/19 12:46:38;;;;;;;4.90;4.70;;;35.10;99.90;;;;;;4975831;28;20416;-60
2022/05/19 12:49:31;;;;;;;5.00;4.70;;;35.60;99.90;;;;;;4975744;28;20523;-60
2022/05/19 12:52:11;;;;;;;4.60;4.40;;;33.80;99.90;;;;;;4978174;28;21020;-59
2022/05/19 12:55:09;;;;;;;4.47;4.13;;;33.40;99.90;;;;;;4978169;28;20466;-61
2022/05/19 12:57:35;;;;;;;5.10;4.80;;;34.30;99.90;;;;;;4983313;28;20487;-61
2022/05/19 13:00:11;;;;;;;4.37;4.17;;;33.90;99.90;;;;;;4988866;28;20427;-61
2022/05/19 13:02:54;;;;;;;4.93;4.63;;;33.70;99.90;;;;;;4988946;28;20550;-61
2022/05/19 13:05:34;;;;;;;5.00;4.80;;;33.50;99.90;;;;;;4991914;28;20419;-60
2022/05/19 13:08:11;;;;;;;5.30;4.80;;;33.20;99.90;;;;;;4993186;28;20427;-59
2022/05/19 13:10:40;;;;;;;5.27;5.00;;;32.90;99.90;;;;;;4991569;28;20494;-60
2022/05/19 13:13:25;;;;;;;4.90;4.57;;;32.90;99.90;;;;;;4973550;28;20495;-60
2022/05/19 13:15:59;;;;;;;4.67;4.37;;;32.60;99.90;;;;;;4989051;28;20503;-59
2022/05/19 13:18:31;;;;;;;5.23;4.87;;;32.50;99.90;;;;;;4993082;28;20423;-60
2022/05/19 13:21:12;;;;;;;5.00;4.70;;;32.10;99.90;;;;;;4990877;28;20899;-61
2022/05/19 13:23:40;;;;;;;4.80;4.50;;;32.00;99.90;;;;;;4991370;28;20463;-61
2022/05/19 13:26:27;;;;;;;5.37;4.93;;;32.30;99.90;;;;;;4991407;28;20463;-60
2022/05/19 13:31:53;;;;;;;5.30;5.00;;;32.10;99.90;;;;;;4989295;28;20505;-60
2022/05/19 13:34:19;;;;;;;5.30;5.00;;;32.10;99.90;;;;;;4992752;28;21076;-61
2022/05/19 13:36:57;;;;;;;4.97;4.57;;;32.60;99.90;;;;;;4991349;28;20423;-60
2022/05/19 13:39:23;;;;;;;5.60;5.20;;;32.80;99.90;;;;;;4992897;28;20423;-62